Lazear, CO (81420)

2:15 PM MDT on August 24, 2016 (GMT -0600)
Rogers Mesa CO | | Change Station

Elev 5794 ft 38.81 °N, 107.77 °W | Updated 12 seconds ago

Clear
Clear
74.4 °F
Feels Like 77 °F
N
1.1
Wind Variable Wind from NE
Gusts 1.1 mph

Today
High -- | Low -- °F
--% Chance of Precip.
Yesterday
High -- | Low -- °F
Precip. -- in
Pressure 30.16 in
Visibility 10.0 miles
Clouds Clear
Heat Index 77 °F
Dew Point 56 °F
Humidity 51%
Rainfall 0.00 in
Snow Depth Not available.
6:33 AM 7:52 PM
Waning Gibbous, 54% visible
METAR KAJZ 241955Z AUTO 19003KT 10SM CLR 25/08 A3016 RMK AO2 LTG DSNT N T02490077
Pressure 30.16 in
Visibility 10.0 miles
Clouds Clear
Heat Index 77 °F
Dew Point 56 °F
Humidity 51%
Rainfall 0.00 in
Snow Depth Not available.
6:33 AM 7:52 PM
Waning Gibbous, 54% visible
METAR KAJZ 241955Z AUTO 19003KT 10SM CLR 25/08 A3016 RMK AO2 LTG DSNT N T02490077

10-Day Weather Forecast

Almanac

Astronomy

Aug. 24, 2016 Rise Set
Actual Time
Civil Twilight
Nautical Twilight
Astronomical Twilight
Moon
Length of Visible Light
Length of Day
Tomorrow will be .
, % of the Moon is Illuminated

Today's Extremes

State Highs State Lows

Community

WunderPhotos

Upload Photos

1,934,699 photos uploaded!

WunderBlog® & News

Nearby

Air Quality

  Air Quality AQ Index Pollutant
Not available.

Snow Depth

Station Depth Elevation

Earthquake Activity

City Distance Mag. Time & Date
Minimum magnitude displayed is 2.5.

Coastal Water Temperatures

Place Temperature

Stations

Nearby Weather Stations

Station Location Temp. Windchill Dew Point Humidity Wind Precip. Elev Updated Type
                   

Watches & Warnings

There are currently no watches in effect.